sensor_id;sensor_type;location;lat;lon;timestamp;P1;durP1;ratioP1;P2;durP2;ratioP2
61785;SDS011;47692;53.714;11.372;2022-12-10T00:00:35;21.45;;;8.90;;
61785;SDS011;47692;53.714;11.372;2022-12-10T00:03:01;22.90;;;9.45;;
61785;SDS011;47692;53.714;11.372;2022-12-10T00:05:26;25.67;;;9.60;;
61785;SDS011;47692;53.714;11.372;2022-12-10T00:07:52;21.85;;;9.55;;
61785;SDS011;47692;53.714;11.372;2022-12-10T00:10:17;22.65;;;8.93;;
61785;SDS011;47692;53.714;11.372;2022-12-10T00:12:42;21.90;;;9.00;;
61785;SDS011;47692;53.714;11.372;2022-12-10T00:15:08;20.08;;;8.55;;
61785;SDS011;47692;53.714;11.372;2022-12-10T00:17:33;18.80;;;7.18;;
61785;SDS011;47692;53.714;11.372;2022-12-10T00:19:58;25.90;;;8.68;;
61785;SDS011;47692;53.714;11.372;2022-12-10T00:22:24;22.42;;;8.60;;
61785;SDS011;47692;53.714;11.372;2022-12-10T00:24:49;19.95;;;8.30;;
61785;SDS011;47692;53.714;11.372;2022-12-10T00:27:14;15.18;;;7.03;;
61785;SDS011;47692;53.714;11.372;2022-12-10T00:29:39;24.08;;;8.93;;
61785;SDS011;47692;53.714;11.372;2022-12-10T00:32:05;18.58;;;8.18;;
61785;SDS011;47692;53.714;11.372;2022-12-10T00:34:31;17.67;;;7.72;;
61785;SDS011;47692;53.714;11.372;2022-12-10T00:36:56;15.13;;;6.93;;
61785;SDS011;47692;53.714;11.372;2022-12-10T00:39:21;15.93;;;6.90;;
61785;SDS011;47692;53.714;11.372;2022-12-10T00:41:47;17.48;;;8.20;;
61785;SDS011;47692;53.714;11.372;2022-12-10T00:44:13;15.88;;;7.03;;
61785;SDS011;47692;53.714;11.372;2022-12-10T00:46:39;19.13;;;7.88;;
61785;SDS011;47692;53.714;11.372;2022-12-10T00:49:04;20.77;;;7.32;;
61785;SDS011;47692;53.714;11.372;2022-12-10T00:51:30;18.35;;;7.78;;
61785;SDS011;47692;53.714;11.372;2022-12-10T00:53:56;17.77;;;7.38;;
61785;SDS011;47692;53.714;11.372;2022-12-10T00:56:23;15.90;;;7.47;;
61785;SDS011;47692;53.714;11.372;2022-12-10T00:58:51;19.98;;;7.90;;
61785;SDS011;47692;53.714;11.372;2022-12-10T01:01:19;14.05;;;6.30;;
61785;SDS011;47692;53.714;11.372;2022-12-10T01:03:47;17.60;;;7.60;;
61785;SDS011;47692;53.714;11.372;2022-12-10T01:06:24;15.88;;;6.40;;
61785;SDS011;47692;53.714;11.372;2022-12-10T01:08:55;23.38;;;8.52;;
61785;SDS011;47692;53.714;11.372;2022-12-10T01:11:25;17.88;;;7.43;;
61785;SDS011;47692;53.714;11.372;2022-12-10T01:13:53;16.95;;;8.00;;
61785;SDS011;47692;53.714;11.372;2022-12-10T01:16:19;20.27;;;8.15;;
61785;SDS011;47692;53.714;11.372;2022-12-10T01:18:45;18.77;;;7.30;;
61785;SDS011;47692;53.714;11.372;2022-12-10T01:21:12;23.15;;;9.32;;
61785;SDS011;47692;53.714;11.372;2022-12-10T01:23:43;22.40;;;8.02;;
61785;SDS011;47692;53.714;11.372;2022-12-10T01:26:13;25.10;;;9.60;;
61785;SDS011;47692;53.714;11.372;2022-12-10T01:28:41;18.58;;;7.40;;
61785;SDS011;47692;53.714;11.372;2022-12-10T01:31:11;16.33;;;6.75;;
61785;SDS011;47692;53.714;11.372;2022-12-10T01:33:44;17.73;;;6.45;;
61785;SDS011;47692;53.714;11.372;2022-12-10T01:36:11;15.65;;;6.57;;
61785;SDS011;47692;53.714;11.372;2022-12-10T01:38:41;14.35;;;6.85;;
61785;SDS011;47692;53.714;11.372;2022-12-10T01:41:07;17.45;;;6.90;;
61785;SDS011;47692;53.714;11.372;2022-12-10T01:43:54;21.02;;;8.63;;
61785;SDS011;47692;53.714;11.372;2022-12-10T01:46:23;20.92;;;7.65;;
61785;SDS011;47692;53.714;11.372;2022-12-10T01:48:50;17.65;;;6.68;;
61785;SDS011;47692;53.714;11.372;2022-12-10T01:51:16;16.02;;;6.65;;
61785;SDS011;47692;53.714;11.372;2022-12-10T01:53:42;15.05;;;6.22;;
61785;SDS011;47692;53.714;11.372;2022-12-10T01:56:09;17.10;;;6.72;;
61785;SDS011;47692;53.714;11.372;2022-12-10T01:58:35;17.33;;;7.15;;
61785;SDS011;47692;53.714;11.372;2022-12-10T02:09:29;15.27;;;6.13;;
61785;SDS011;47692;53.714;11.372;2022-12-10T02:12:10;14.20;;;5.80;;
61785;SDS011;47692;53.714;11.372;2022-12-10T02:17:22;15.45;;;6.60;;
61785;SDS011;47692;53.714;11.372;2022-12-10T02:22:28;15.00;;;6.13;;
61785;SDS011;47692;53.714;11.372;2022-12-10T02:24:58;18.40;;;6.85;;
61785;SDS011;47692;53.714;11.372;2022-12-10T02:27:29;17.23;;;6.90;;
61785;SDS011;47692;53.714;11.372;2022-12-10T02:30:02;16.83;;;7.15;;
61785;SDS011;47692;53.714;11.372;2022-12-10T02:32:33;15.18;;;6.85;;
61785;SDS011;47692;53.714;11.372;2022-12-10T02:35:03;13.30;;;6.07;;
61785;SDS011;47692;53.714;11.372;2022-12-10T02:37:42;18.90;;;7.43;;
61785;SDS011;47692;53.714;11.372;2022-12-10T02:40:17;16.88;;;7.90;;
61785;SDS011;47692;53.714;11.372;2022-12-10T02:42:49;22.52;;;7.15;;
61785;SDS011;47692;53.714;11.372;2022-12-10T02:45:16;17.08;;;6.85;;
61785;SDS011;47692;53.714;11.372;2022-12-10T02:47:43;18.35;;;7.60;;
61785;SDS011;47692;53.714;11.372;2022-12-10T02:50:10;21.90;;;7.97;;
61785;SDS011;47692;53.714;11.372;2022-12-10T02:52:37;19.60;;;7.57;;
61785;SDS011;47692;53.714;11.372;2022-12-10T02:55:03;17.70;;;6.28;;
61785;SDS011;47692;53.714;11.372;2022-12-10T03:00:21;23.15;;;9.32;;
61785;SDS011;47692;53.714;11.372;2022-12-10T03:03:07;20.88;;;8.90;;
61785;SDS011;47692;53.714;11.372;2022-12-10T03:11:17;16.77;;;6.72;;
61785;SDS011;47692;53.714;11.372;2022-12-10T03:16:16;20.40;;;7.20;;
61785;SDS011;47692;53.714;11.372;2022-12-10T03:18:43;17.20;;;5.93;;
61785;SDS011;47692;53.714;11.372;2022-12-10T03:21:10;17.13;;;7.72;;
61785;SDS011;47692;53.714;11.372;2022-12-10T03:23:39;16.30;;;6.68;;
61785;SDS011;47692;53.714;11.372;2022-12-10T03:26:07;17.52;;;7.35;;
61785;SDS011;47692;53.714;11.372;2022-12-10T03:28:34;17.15;;;6.35;;
61785;SDS011;47692;53.714;11.372;2022-12-10T03:31:05;18.52;;;7.28;;
61785;SDS011;47692;53.714;11.372;2022-12-10T03:33:32;17.08;;;6.80;;
61785;SDS011;47692;53.714;11.372;2022-12-10T03:35:57;18.95;;;6.82;;
61785;SDS011;47692;53.714;11.372;2022-12-10T03:38:23;15.70;;;7.05;;
61785;SDS011;47692;53.714;11.372;2022-12-10T03:40:49;17.38;;;7.88;;
61785;SDS011;47692;53.714;11.372;2022-12-10T03:43:14;17.13;;;6.65;;
61785;SDS011;47692;53.714;11.372;2022-12-10T03:45:40;15.90;;;6.32;;
61785;SDS011;47692;53.714;11.372;2022-12-10T03:48:05;18.90;;;6.80;;
61785;SDS011;47692;53.714;11.372;2022-12-10T03:50:30;19.63;;;7.47;;
61785;SDS011;47692;53.714;11.372;2022-12-10T03:52:56;20.20;;;6.97;;
61785;SDS011;47692;53.714;11.372;2022-12-10T03:55:21;22.30;;;7.53;;
61785;SDS011;47692;53.714;11.372;2022-12-10T03:57:46;21.98;;;7.28;;
61785;SDS011;47692;53.714;11.372;2022-12-10T04:00:13;20.50;;;7.22;;
61785;SDS011;47692;53.714;11.372;2022-12-10T04:02:38;19.90;;;7.00;;
61785;SDS011;47692;53.714;11.372;2022-12-10T04:05:04;17.02;;;7.00;;
61785;SDS011;47692;53.714;11.372;2022-12-10T04:07:31;19.02;;;7.32;;
61785;SDS011;47692;53.714;11.372;2022-12-10T04:09:56;18.38;;;7.25;;
61785;SDS011;47692;53.714;11.372;2022-12-10T04:12:21;25.00;;;7.88;;
61785;SDS011;47692;53.714;11.372;2022-12-10T04:14:47;17.65;;;7.53;;
61785;SDS011;47692;53.714;11.372;2022-12-10T04:17:31;22.95;;;7.40;;
61785;SDS011;47692;53.714;11.372;2022-12-10T04:19:58;17.65;;;7.50;;
61785;SDS011;47692;53.714;11.372;2022-12-10T04:22:23;20.52;;;6.95;;
61785;SDS011;47692;53.714;11.372;2022-12-10T04:25:08;20.77;;;7.60;;
61785;SDS011;47692;53.714;11.372;2022-12-10T04:27:54;17.65;;;6.82;;
61785;SDS011;47692;53.714;11.372;2022-12-10T04:30:20;19.88;;;6.75;;
61785;SDS011;47692;53.714;11.372;2022-12-10T04:32:45;19.23;;;7.70;;
61785;SDS011;47692;53.714;11.372;2022-12-10T04:35:11;19.58;;;7.75;;
61785;SDS011;47692;53.714;11.372;2022-12-10T04:37:36;19.05;;;7.72;;
61785;SDS011;47692;53.714;11.372;2022-12-10T04:40:02;16.08;;;7.32;;
61785;SDS011;47692;53.714;11.372;2022-12-10T04:42:28;18.75;;;6.72;;
61785;SDS011;47692;53.714;11.372;2022-12-10T04:44:53;18.92;;;7.45;;
61785;SDS011;47692;53.714;11.372;2022-12-10T04:47:18;21.20;;;7.35;;
61785;SDS011;47692;53.714;11.372;2022-12-10T04:49:44;18.85;;;7.60;;
61785;SDS011;47692;53.714;11.372;2022-12-10T04:52:10;17.13;;;6.97;;
61785;SDS011;47692;53.714;11.372;2022-12-10T04:54:38;15.75;;;6.90;;
61785;SDS011;47692;53.714;11.372;2022-12-10T04:57:03;20.02;;;7.75;;
61785;SDS011;47692;53.714;11.372;2022-12-10T04:59:29;16.02;;;7.30;;
61785;SDS011;47692;53.714;11.372;2022-12-10T05:01:54;19.35;;;7.47;;
61785;SDS011;47692;53.714;11.372;2022-12-10T05:04:19;19.55;;;6.50;;
61785;SDS011;47692;53.714;11.372;2022-12-10T05:06:45;17.50;;;6.88;;
61785;SDS011;47692;53.714;11.372;2022-12-10T05:09:13;19.42;;;7.35;;
61785;SDS011;47692;53.714;11.372;2022-12-10T05:11:38;17.33;;;6.88;;
61785;SDS011;47692;53.714;11.372;2022-12-10T05:14:04;17.73;;;7.22;;
61785;SDS011;47692;53.714;11.372;2022-12-10T05:16:31;18.27;;;6.55;;
61785;SDS011;47692;53.714;11.372;2022-12-10T05:18:58;16.80;;;6.68;;
61785;SDS011;47692;53.714;11.372;2022-12-10T05:21:25;19.75;;;7.00;;
61785;SDS011;47692;53.714;11.372;2022-12-10T05:24:10;19.10;;;8.18;;
61785;SDS011;47692;53.714;11.372;2022-12-10T05:26:36;18.65;;;7.10;;
61785;SDS011;47692;53.714;11.372;2022-12-10T05:29:01;19.23;;;8.18;;
61785;SDS011;47692;53.714;11.372;2022-12-10T05:31:27;17.25;;;7.30;;
61785;SDS011;47692;53.714;11.372;2022-12-10T05:33:54;19.48;;;7.63;;
61785;SDS011;47692;53.714;11.372;2022-12-10T05:36:22;15.98;;;7.18;;
61785;SDS011;47692;53.714;11.372;2022-12-10T05:38:49;17.83;;;7.70;;
61785;SDS011;47692;53.714;11.372;2022-12-10T05:41:16;16.90;;;6.70;;
61785;SDS011;47692;53.714;11.372;2022-12-10T05:43:46;15.48;;;5.80;;
61785;SDS011;47692;53.714;11.372;2022-12-10T05:46:13;18.48;;;6.93;;
61785;SDS011;47692;53.714;11.372;2022-12-10T05:48:43;19.70;;;7.38;;
61785;SDS011;47692;53.714;11.372;2022-12-10T05:51:22;16.27;;;6.00;;
61785;SDS011;47692;53.714;11.372;2022-12-10T05:53:51;19.83;;;6.85;;
61785;SDS011;47692;53.714;11.372;2022-12-10T05:56:18;17.70;;;8.13;;
61785;SDS011;47692;53.714;11.372;2022-12-10T05:58:46;17.90;;;6.70;;
61785;SDS011;47692;53.714;11.372;2022-12-10T06:01:14;18.42;;;8.10;;
61785;SDS011;47692;53.714;11.372;2022-12-10T06:03:41;15.13;;;5.70;;
61785;SDS011;47692;53.714;11.372;2022-12-10T06:06:06;14.80;;;6.55;;
61785;SDS011;47692;53.714;11.372;2022-12-10T06:08:32;17.65;;;6.80;;
61785;SDS011;47692;53.714;11.372;2022-12-10T06:11:02;17.70;;;6.22;;
61785;SDS011;47692;53.714;11.372;2022-12-10T06:13:37;16.63;;;7.35;;
61785;SDS011;47692;53.714;11.372;2022-12-10T06:16:06;16.05;;;6.80;;
61785;SDS011;47692;53.714;11.372;2022-12-10T06:18:34;16.73;;;7.03;;
61785;SDS011;47692;53.714;11.372;2022-12-10T06:21:10;17.83;;;7.68;;
61785;SDS011;47692;53.714;11.372;2022-12-10T06:23:37;17.30;;;7.13;;
61785;SDS011;47692;53.714;11.372;2022-12-10T06:26:07;19.90;;;7.97;;
61785;SDS011;47692;53.714;11.372;2022-12-10T06:28:35;18.38;;;7.75;;
61785;SDS011;47692;53.714;11.372;2022-12-10T06:31:01;18.08;;;7.82;;
61785;SDS011;47692;53.714;11.372;2022-12-10T06:33:26;16.42;;;7.20;;
61785;SDS011;47692;53.714;11.372;2022-12-10T06:35:51;18.63;;;7.28;;
61785;SDS011;47692;53.714;11.372;2022-12-10T06:38:17;15.07;;;6.30;;
61785;SDS011;47692;53.714;11.372;2022-12-10T06:40:42;16.65;;;6.82;;
61785;SDS011;47692;53.714;11.372;2022-12-10T06:43:07;16.90;;;7.47;;
61785;SDS011;47692;53.714;11.372;2022-12-10T06:45:33;14.85;;;6.13;;
61785;SDS011;47692;53.714;11.372;2022-12-10T06:47:58;14.75;;;6.88;;
61785;SDS011;47692;53.714;11.372;2022-12-10T06:50:23;15.82;;;6.07;;
61785;SDS011;47692;53.714;11.372;2022-12-10T06:52:49;17.85;;;7.15;;
61785;SDS011;47692;53.714;11.372;2022-12-10T06:55:15;14.93;;;6.43;;
61785;SDS011;47692;53.714;11.372;2022-12-10T06:57:41;18.45;;;6.72;;
61785;SDS011;47692;53.714;11.372;2022-12-10T07:00:06;16.38;;;6.43;;
61785;SDS011;47692;53.714;11.372;2022-12-10T07:02:32;19.48;;;6.57;;
61785;SDS011;47692;53.714;11.372;2022-12-10T07:04:58;18.88;;;7.43;;
61785;SDS011;47692;53.714;11.372;2022-12-10T07:07:24;15.18;;;6.35;;
61785;SDS011;47692;53.714;11.372;2022-12-10T07:09:49;18.85;;;6.57;;
61785;SDS011;47692;53.714;11.372;2022-12-10T07:12:14;15.80;;;6.70;;
61785;SDS011;47692;53.714;11.372;2022-12-10T07:14:41;19.75;;;6.90;;
61785;SDS011;47692;53.714;11.372;2022-12-10T07:17:06;18.23;;;6.60;;
61785;SDS011;47692;53.714;11.372;2022-12-10T07:19:32;20.67;;;8.20;;
61785;SDS011;47692;53.714;11.372;2022-12-10T07:21:58;23.25;;;8.07;;
61785;SDS011;47692;53.714;11.372;2022-12-10T07:24:23;19.60;;;7.55;;
61785;SDS011;47692;53.714;11.372;2022-12-10T07:26:49;14.93;;;6.40;;
61785;SDS011;47692;53.714;11.372;2022-12-10T07:29:16;18.58;;;8.23;;
61785;SDS011;47692;53.714;11.372;2022-12-10T07:31:44;43.83;;;17.55;;
61785;SDS011;47692;53.714;11.372;2022-12-10T07:34:10;20.17;;;8.55;;
61785;SDS011;47692;53.714;11.372;2022-12-10T07:36:36;22.90;;;8.50;;
61785;SDS011;47692;53.714;11.372;2022-12-10T07:39:01;28.83;;;12.80;;
61785;SDS011;47692;53.714;11.372;2022-12-10T07:41:30;24.83;;;11.45;;
61785;SDS011;47692;53.714;11.372;2022-12-10T07:43:55;20.88;;;10.82;;
61785;SDS011;47692;53.714;11.372;2022-12-10T07:46:24;20.38;;;8.63;;
61785;SDS011;47692;53.714;11.372;2022-12-10T07:48:52;19.98;;;8.52;;
61785;SDS011;47692;53.714;11.372;2022-12-10T07:51:18;34.45;;;10.75;;
61785;SDS011;47692;53.714;11.372;2022-12-10T07:53:45;22.83;;;7.78;;
61785;SDS011;47692;53.714;11.372;2022-12-10T07:56:11;16.17;;;7.10;;
61785;SDS011;47692;53.714;11.372;2022-12-10T07:58:36;30.05;;;11.18;;
61785;SDS011;47692;53.714;11.372;2022-12-10T08:01:06;22.50;;;8.90;;
61785;SDS011;47692;53.714;11.372;2022-12-10T08:03:36;16.83;;;6.50;;
61785;SDS011;47692;53.714;11.372;2022-12-10T08:06:09;15.70;;;6.07;;
61785;SDS011;47692;53.714;11.372;2022-12-10T08:08:39;19.38;;;7.28;;
61785;SDS011;47692;53.714;11.372;2022-12-10T08:11:05;18.35;;;6.65;;
61785;SDS011;47692;53.714;11.372;2022-12-10T08:13:31;21.67;;;9.15;;
61785;SDS011;47692;53.714;11.372;2022-12-10T08:16:00;15.15;;;5.93;;
61785;SDS011;47692;53.714;11.372;2022-12-10T08:18:27;16.45;;;6.22;;
61785;SDS011;47692;53.714;11.372;2022-12-10T08:20:53;16.58;;;7.22;;
61785;SDS011;47692;53.714;11.372;2022-12-10T08:23:18;19.75;;;10.27;;
61785;SDS011;47692;53.714;11.372;2022-12-10T08:25:43;19.75;;;8.75;;
61785;SDS011;47692;53.714;11.372;2022-12-10T08:28:08;20.42;;;9.00;;
61785;SDS011;47692;53.714;11.372;2022-12-10T08:30:34;28.65;;;12.90;;
61785;SDS011;47692;53.714;11.372;2022-12-10T08:32:59;22.92;;;9.27;;
61785;SDS011;47692;53.714;11.372;2022-12-10T08:35:24;17.65;;;7.28;;
61785;SDS011;47692;53.714;11.372;2022-12-10T08:37:50;15.25;;;7.82;;
61785;SDS011;47692;53.714;11.372;2022-12-10T08:40:16;19.70;;;8.63;;
61785;SDS011;47692;53.714;11.372;2022-12-10T08:42:41;18.15;;;7.95;;
61785;SDS011;47692;53.714;11.372;2022-12-10T08:45:06;18.55;;;7.75;;
61785;SDS011;47692;53.714;11.372;2022-12-10T08:47:32;17.92;;;6.55;;
61785;SDS011;47692;53.714;11.372;2022-12-10T08:49:57;17.67;;;6.80;;
61785;SDS011;47692;53.714;11.372;2022-12-10T08:52:23;19.67;;;8.60;;
61785;SDS011;47692;53.714;11.372;2022-12-10T08:54:48;13.30;;;5.63;;
61785;SDS011;47692;53.714;11.372;2022-12-10T08:57:13;12.43;;;5.03;;
61785;SDS011;47692;53.714;11.372;2022-12-10T08:59:39;11.63;;;4.28;;
61785;SDS011;47692;53.714;11.372;2022-12-10T09:02:08;11.85;;;5.28;;
61785;SDS011;47692;53.714;11.372;2022-12-10T09:04:36;13.77;;;6.13;;
61785;SDS011;47692;53.714;11.372;2022-12-10T09:07:01;15.43;;;4.45;;
61785;SDS011;47692;53.714;11.372;2022-12-10T09:09:26;10.30;;;4.22;;
61785;SDS011;47692;53.714;11.372;2022-12-10T09:11:52;9.45;;;4.35;;
61785;SDS011;47692;53.714;11.372;2022-12-10T09:14:17;13.13;;;5.20;;
61785;SDS011;47692;53.714;11.372;2022-12-10T09:16:42;12.77;;;6.20;;
61785;SDS011;47692;53.714;11.372;2022-12-10T09:19:08;13.50;;;5.10;;
61785;SDS011;47692;53.714;11.372;2022-12-10T09:21:34;9.35;;;3.97;;
61785;SDS011;47692;53.714;11.372;2022-12-10T09:24:00;15.40;;;6.32;;
61785;SDS011;47692;53.714;11.372;2022-12-10T09:26:26;14.95;;;6.35;;
61785;SDS011;47692;53.714;11.372;2022-12-10T09:28:51;12.57;;;5.43;;
61785;SDS011;47692;53.714;11.372;2022-12-10T09:31:17;10.32;;;5.10;;
61785;SDS011;47692;53.714;11.372;2022-12-10T09:33:44;12.75;;;5.45;;
61785;SDS011;47692;53.714;11.372;2022-12-10T09:36:11;13.82;;;5.88;;
61785;SDS011;47692;53.714;11.372;2022-12-10T09:38:38;11.52;;;5.10;;
61785;SDS011;47692;53.714;11.372;2022-12-10T09:41:10;11.55;;;5.93;;
61785;SDS011;47692;53.714;11.372;2022-12-10T09:43:55;12.40;;;6.38;;
61785;SDS011;47692;53.714;11.372;2022-12-10T09:46:50;17.80;;;6.68;;
61785;SDS011;47692;53.714;11.372;2022-12-10T09:52:41;13.68;;;5.50;;
61785;SDS011;47692;53.714;11.372;2022-12-10T09:55:19;12.90;;;5.35;;
61785;SDS011;47692;53.714;11.372;2022-12-10T09:57:49;11.13;;;4.65;;
61785;SDS011;47692;53.714;11.372;2022-12-10T10:02:52;9.07;;;3.90;;
61785;SDS011;47692;53.714;11.372;2022-12-10T10:05:24;7.75;;;4.20;;
61785;SDS011;47692;53.714;11.372;2022-12-10T10:07:55;11.63;;;4.88;;
61785;SDS011;47692;53.714;11.372;2022-12-10T10:10:27;10.30;;;3.78;;
61785;SDS011;47692;53.714;11.372;2022-12-10T10:12:56;10.20;;;3.75;;
61785;SDS011;47692;53.714;11.372;2022-12-10T10:15:34;9.40;;;3.72;;
61785;SDS011;47692;53.714;11.372;2022-12-10T10:18:03;8.30;;;4.07;;
61785;SDS011;47692;53.714;11.372;2022-12-10T10:20:37;10.90;;;4.45;;
61785;SDS011;47692;53.714;11.372;2022-12-10T10:23:02;11.73;;;4.45;;
61785;SDS011;47692;53.714;11.372;2022-12-10T10:25:27;9.55;;;4.78;;
61785;SDS011;47692;53.714;11.372;2022-12-10T10:27:53;10.55;;;4.72;;
61785;SDS011;47692;53.714;11.372;2022-12-10T10:30:20;9.98;;;4.45;;
61785;SDS011;47692;53.714;11.372;2022-12-10T10:32:48;7.50;;;3.70;;
61785;SDS011;47692;53.714;11.372;2022-12-10T10:38:05;10.65;;;4.03;;
61785;SDS011;47692;53.714;11.372;2022-12-10T10:40:39;9.68;;;4.20;;
61785;SDS011;47692;53.714;11.372;2022-12-10T10:43:06;10.02;;;4.03;;
61785;SDS011;47692;53.714;11.372;2022-12-10T10:45:41;10.63;;;4.32;;
61785;SDS011;47692;53.714;11.372;2022-12-10T10:48:19;9.32;;;3.47;;
61785;SDS011;47692;53.714;11.372;2022-12-10T10:56:27;9.52;;;3.95;;
61785;SDS011;47692;53.714;11.372;2022-12-10T11:01:23;9.77;;;4.05;;
61785;SDS011;47692;53.714;11.372;2022-12-10T11:03:53;9.63;;;4.07;;
61785;SDS011;47692;53.714;11.372;2022-12-10T11:06:20;9.77;;;4.90;;
61785;SDS011;47692;53.714;11.372;2022-12-10T11:08:46;10.48;;;4.70;;
61785;SDS011;47692;53.714;11.372;2022-12-10T11:11:19;10.02;;;4.80;;
61785;SDS011;47692;53.714;11.372;2022-12-10T11:13:50;10.73;;;3.92;;
61785;SDS011;47692;53.714;11.372;2022-12-10T11:16:19;9.18;;;4.05;;
61785;SDS011;47692;53.714;11.372;2022-12-10T11:21:32;7.28;;;3.85;;
61785;SDS011;47692;53.714;11.372;2022-12-10T11:24:00;6.43;;;3.15;;
61785;SDS011;47692;53.714;11.372;2022-12-10T11:27:31;7.90;;;3.63;;
61785;SDS011;47692;53.714;11.372;2022-12-10T11:41:12;10.45;;;3.60;;
61785;SDS011;47692;53.714;11.372;2022-12-10T11:44:16;8.80;;;3.90;;
61785;SDS011;47692;53.714;11.372;2022-12-10T11:49:25;8.60;;;3.83;;
61785;SDS011;47692;53.714;11.372;2022-12-10T11:52:06;8.85;;;3.88;;
61785;SDS011;47692;53.714;11.372;2022-12-10T11:57:30;12.15;;;5.53;;
61785;SDS011;47692;53.714;11.372;2022-12-10T12:00:13;15.48;;;6.65;;
61785;SDS011;47692;53.714;11.372;2022-12-10T12:08:21;12.77;;;4.80;;
61785;SDS011;47692;53.714;11.372;2022-12-10T12:11:13;8.05;;;3.83;;
61785;SDS011;47692;53.714;11.372;2022-12-10T12:14:13;9.52;;;4.38;;
61785;SDS011;47692;53.714;11.372;2022-12-10T12:19:49;10.70;;;3.80;;
61785;SDS011;47692;53.714;11.372;2022-12-10T12:22:25;9.93;;;3.90;;
61785;SDS011;47692;53.714;11.372;2022-12-10T12:24:57;8.88;;;3.47;;
61785;SDS011;47692;53.714;11.372;2022-12-10T12:27:38;10.73;;;4.15;;
61785;SDS011;47692;53.714;11.372;2022-12-10T12:33:02;16.05;;;6.05;;
61785;SDS011;47692;53.714;11.372;2022-12-10T12:35:38;14.30;;;6.20;;
61785;SDS011;47692;53.714;11.372;2022-12-10T12:38:18;12.73;;;6.18;;
61785;SDS011;47692;53.714;11.372;2022-12-10T12:43:33;11.02;;;5.28;;
61785;SDS011;47692;53.714;11.372;2022-12-10T12:46:10;10.48;;;4.43;;
61785;SDS011;47692;53.714;11.372;2022-12-10T12:54:03;9.90;;;4.63;;
61785;SDS011;47692;53.714;11.372;2022-12-10T13:01:51;10.60;;;5.32;;
61785;SDS011;47692;53.714;11.372;2022-12-10T13:04:23;9.13;;;4.53;;
61785;SDS011;47692;53.714;11.372;2022-12-10T13:09:46;13.43;;;4.70;;
61785;SDS011;47692;53.714;11.372;2022-12-10T13:12:31;11.90;;;5.13;;
61785;SDS011;47692;53.714;11.372;2022-12-10T13:15:20;9.98;;;4.35;;
61785;SDS011;47692;53.714;11.372;2022-12-10T13:20:49;8.63;;;4.55;;
61785;SDS011;47692;53.714;11.372;2022-12-10T13:41:28;10.77;;;3.90;;
61785;SDS011;47692;53.714;11.372;2022-12-10T13:47:37;10.05;;;3.65;;
61785;SDS011;47692;53.714;11.372;2022-12-10T13:50:19;9.80;;;4.03;;
61785;SDS011;47692;53.714;11.372;2022-12-10T14:03:44;10.02;;;4.35;;
61785;SDS011;47692;53.714;11.372;2022-12-10T14:06:40;10.60;;;4.57;;
61785;SDS011;47692;53.714;11.372;2022-12-10T14:09:17;10.95;;;4.07;;
61785;SDS011;47692;53.714;11.372;2022-12-10T14:11:46;11.23;;;4.07;;
61785;SDS011;47692;53.714;11.372;2022-12-10T14:14:23;9.20;;;4.13;;
61785;SDS011;47692;53.714;11.372;2022-12-10T14:16:55;10.45;;;4.43;;
61785;SDS011;47692;53.714;11.372;2022-12-10T14:19:20;12.07;;;5.22;;
61785;SDS011;47692;53.714;11.372;2022-12-10T14:21:51;14.30;;;7.95;;
61785;SDS011;47692;53.714;11.372;2022-12-10T14:24:30;12.45;;;6.53;;
61785;SDS011;47692;53.714;11.372;2022-12-10T14:27:05;10.63;;;5.10;;
61785;SDS011;47692;53.714;11.372;2022-12-10T14:29:34;9.95;;;3.72;;
61785;SDS011;47692;53.714;11.372;2022-12-10T14:31:59;13.27;;;4.53;;
61785;SDS011;47692;53.714;11.372;2022-12-10T14:34:25;9.95;;;4.30;;
61785;SDS011;47692;53.714;11.372;2022-12-10T14:36:56;11.27;;;4.57;;
61785;SDS011;47692;53.714;11.372;2022-12-10T14:39:26;11.65;;;4.20;;
61785;SDS011;47692;53.714;11.372;2022-12-10T14:41:55;9.73;;;3.83;;
61785;SDS011;47692;53.714;11.372;2022-12-10T14:44:24;11.65;;;4.25;;
61785;SDS011;47692;53.714;11.372;2022-12-10T14:46:50;9.63;;;4.05;;
61785;SDS011;47692;53.714;11.372;2022-12-10T14:49:16;9.10;;;4.20;;
61785;SDS011;47692;53.714;11.372;2022-12-10T14:51:50;11.75;;;5.10;;
61785;SDS011;47692;53.714;11.372;2022-12-10T14:54:27;9.00;;;4.35;;
61785;SDS011;47692;53.714;11.372;2022-12-10T14:56:57;12.63;;;4.22;;
61785;SDS011;47692;53.714;11.372;2022-12-10T14:59:34;10.95;;;4.28;;
61785;SDS011;47692;53.714;11.372;2022-12-10T15:02:16;11.25;;;4.97;;
61785;SDS011;47692;53.714;11.372;2022-12-10T15:04:48;11.85;;;4.10;;
61785;SDS011;47692;53.714;11.372;2022-12-10T15:07:22;8.50;;;4.10;;
61785;SDS011;47692;53.714;11.372;2022-12-10T15:09:50;11.43;;;4.43;;
61785;SDS011;47692;53.714;11.372;2022-12-10T15:12:27;11.45;;;4.55;;
61785;SDS011;47692;53.714;11.372;2022-12-10T15:14:57;12.05;;;4.63;;
61785;SDS011;47692;53.714;11.372;2022-12-10T15:17:45;10.38;;;4.38;;
61785;SDS011;47692;53.714;11.372;2022-12-10T15:20:24;11.25;;;4.68;;
61785;SDS011;47692;53.714;11.372;2022-12-10T15:22:55;11.60;;;4.75;;
61785;SDS011;47692;53.714;11.372;2022-12-10T15:25:40;10.80;;;4.47;;
61785;SDS011;47692;53.714;11.372;2022-12-10T15:28:26;12.68;;;5.18;;
61785;SDS011;47692;53.714;11.372;2022-12-10T15:39:15;11.13;;;4.53;;
61785;SDS011;47692;53.714;11.372;2022-12-10T15:41:44;12.67;;;4.80;;
61785;SDS011;47692;53.714;11.372;2022-12-10T15:46:57;10.00;;;4.20;;
61785;SDS011;47692;53.714;11.372;2022-12-10T15:49:23;15.00;;;6.50;;
61785;SDS011;47692;53.714;11.372;2022-12-10T15:51:48;16.60;;;7.35;;
61785;SDS011;47692;53.714;11.372;2022-12-10T15:54:27;15.18;;;6.13;;
61785;SDS011;47692;53.714;11.372;2022-12-10T15:56:56;15.18;;;6.10;;
61785;SDS011;47692;53.714;11.372;2022-12-10T15:59:22;13.13;;;5.18;;
61785;SDS011;47692;53.714;11.372;2022-12-10T16:01:47;10.63;;;4.75;;
61785;SDS011;47692;53.714;11.372;2022-12-10T16:04:13;11.93;;;4.93;;
61785;SDS011;47692;53.714;11.372;2022-12-10T16:06:38;13.00;;;4.95;;
61785;SDS011;47692;53.714;11.372;2022-12-10T16:09:04;9.95;;;4.10;;
61785;SDS011;47692;53.714;11.372;2022-12-10T16:11:29;11.15;;;4.70;;
61785;SDS011;47692;53.714;11.372;2022-12-10T16:13:56;8.68;;;4.25;;
61785;SDS011;47692;53.714;11.372;2022-12-10T16:16:22;8.80;;;3.95;;
61785;SDS011;47692;53.714;11.372;2022-12-10T16:18:48;10.50;;;4.60;;
61785;SDS011;47692;53.714;11.372;2022-12-10T16:21:14;11.95;;;4.85;;
61785;SDS011;47692;53.714;11.372;2022-12-10T16:23:39;14.27;;;5.25;;
61785;SDS011;47692;53.714;11.372;2022-12-10T16:26:10;11.98;;;4.53;;
61785;SDS011;47692;53.714;11.372;2022-12-10T16:28:38;10.77;;;4.75;;
61785;SDS011;47692;53.714;11.372;2022-12-10T16:31:04;11.80;;;5.10;;
61785;SDS011;47692;53.714;11.372;2022-12-10T16:33:29;10.07;;;4.47;;
61785;SDS011;47692;53.714;11.372;2022-12-10T16:35:55;12.90;;;5.30;;
61785;SDS011;47692;53.714;11.372;2022-12-10T16:38:22;11.73;;;4.32;;
61785;SDS011;47692;53.714;11.372;2022-12-10T16:40:48;13.27;;;5.72;;
61785;SDS011;47692;53.714;11.372;2022-12-10T16:43:18;12.30;;;4.97;;
61785;SDS011;47692;53.714;11.372;2022-12-10T16:45:48;20.58;;;9.27;;
61785;SDS011;47692;53.714;11.372;2022-12-10T16:48:15;17.73;;;8.45;;
61785;SDS011;47692;53.714;11.372;2022-12-10T16:50:40;15.88;;;7.07;;